createdAt,value
2017-12-17T00:01:13.312Z,22.70
2017-12-17T00:03:40.798Z,23.12
2017-12-17T00:06:09.079Z,27.23
2017-12-17T00:08:36.567Z,23.48
2017-12-17T00:11:04.104Z,22.27
2017-12-17T00:13:31.658Z,16.80
2017-12-17T00:15:59.193Z,21.65
2017-12-17T00:18:26.681Z,24.45
2017-12-17T00:20:55.191Z,23.15
2017-12-17T00:23:22.798Z,23.55
2017-12-17T00:25:51.063Z,26.50
2017-12-17T00:28:18.571Z,24.05
2017-12-17T00:30:46.078Z,19.05
2017-12-17T00:33:13.555Z,24.15
2017-12-17T00:35:41.167Z,18.27
2017-12-17T00:38:08.677Z,19.62
2017-12-17T00:40:36.193Z,18.98
2017-12-17T00:43:04.490Z,19.40
2017-12-17T00:45:31.986Z,21.20
2017-12-17T00:47:59.577Z,27.27
2017-12-17T00:50:27.091Z,20.92
2017-12-17T00:52:55.422Z,27.85
2017-12-17T00:55:22.931Z,29.75
2017-12-17T00:57:50.439Z,24.73
2017-12-17T01:00:18.001Z,22.15
2017-12-17T01:02:46.419Z,23.02
2017-12-17T01:05:14.767Z,23.80
2017-12-17T01:07:42.422Z,21.75
2017-12-17T01:10:09.903Z,20.85
2017-12-17T01:12:37.639Z,22.62
2017-12-17T01:15:05.174Z,22.33
2017-12-17T01:17:32.725Z,19.60
2017-12-17T01:20:00.280Z,21.20
2017-12-17T01:22:27.768Z,20.00
2017-12-17T01:24:55.254Z,20.58
2017-12-17T01:27:23.504Z,28.30
2017-12-17T01:29:51.040Z,15.93
2017-12-17T01:32:18.567Z,22.37
2017-12-17T01:34:46.865Z,20.52
2017-12-17T01:37:14.359Z,19.83
2017-12-17T01:39:41.858Z,23.30
2017-12-17T01:42:09.379Z,20.27
2017-12-17T01:44:36.878Z,21.65
2017-12-17T01:47:05.123Z,18.95
2017-12-17T01:49:32.643Z,18.75
2017-12-17T01:52:00.127Z,26.55
2017-12-17T01:54:27.618Z,25.65
2017-12-17T01:56:55.154Z,20.67
2017-12-17T01:59:22.685Z,21.08
2017-12-17T02:01:50.170Z,19.00
2017-12-17T02:04:17.702Z,18.58
2017-12-17T02:06:45.199Z,18.00
2017-12-17T02:09:12.687Z,21.70
2017-12-17T02:11:40.210Z,23.23
2017-12-17T02:14:07.701Z,17.87
2017-12-17T02:16:35.194Z,17.42
2017-12-17T02:19:02.777Z,21.45
2017-12-17T02:21:30.271Z,18.00
2017-12-17T02:23:58.523Z,19.37
2017-12-17T02:26:26.038Z,20.50
2017-12-17T02:28:53.529Z,18.15
2017-12-17T02:31:21.017Z,19.50
2017-12-17T02:33:48.537Z,22.25
2017-12-17T02:36:16.044Z,18.20
2017-12-17T02:38:43.526Z,20.48
2017-12-17T02:41:11.039Z,17.55
2017-12-17T02:43:38.586Z,22.62
2017-12-17T02:46:07.523Z,17.48
2017-12-17T02:48:35.007Z,19.20
2017-12-17T02:51:02.627Z,16.27
2017-12-17T02:53:30.430Z,20.65
2017-12-17T02:55:57.943Z,23.77
2017-12-17T02:58:25.528Z,21.98
2017-12-17T03:00:53.120Z,16.25
2017-12-17T03:03:20.719Z,20.70
2017-12-17T03:05:49.053Z,16.05
2017-12-17T03:08:16.562Z,17.00
2017-12-17T03:10:44.125Z,19.17
2017-12-17T03:13:11.720Z,19.90
2017-12-17T03:15:39.301Z,16.65
2017-12-17T03:18:06.808Z,18.55
2017-12-17T03:20:35.264Z,20.75
2017-12-17T03:23:02.868Z,18.65
2017-12-17T03:25:30.350Z,18.48
2017-12-17T03:27:57.838Z,23.45
2017-12-17T03:30:25.423Z,22.10
2017-12-17T03:32:52.941Z,18.08
2017-12-17T03:35:20.430Z,16.30
2017-12-17T03:37:48.710Z,17.67
2017-12-17T03:40:16.213Z,22.90
2017-12-17T03:42:43.707Z,20.65
2017-12-17T03:45:11.218Z,22.40
2017-12-17T03:47:38.702Z,22.37
2017-12-17T03:52:40.202Z,20.80
2017-12-17T03:55:08.563Z,14.52
2017-12-17T03:57:36.830Z,20.25
2017-12-17T04:00:04.459Z,21.37
2017-12-17T04:02:31.949Z,19.40
2017-12-17T04:04:59.434Z,19.23
2017-12-17T04:07:27.840Z,23.40
2017-12-17T04:09:55.327Z,20.52
2017-12-17T04:12:22.807Z,22.33
2017-12-17T04:14:50.334Z,21.00
2017-12-17T04:17:17.822Z,17.87
2017-12-17T04:19:45.306Z,23.38
2017-12-17T04:22:13.582Z,23.08
2017-12-17T04:24:41.101Z,20.77
2017-12-17T04:27:08.643Z,17.40
2017-12-17T04:29:36.170Z,23.83
2017-12-17T04:32:05.047Z,20.35
2017-12-17T04:34:32.538Z,20.48
2017-12-17T04:37:00.066Z,22.02
2017-12-17T04:39:27.555Z,22.42
2017-12-17T04:41:55.038Z,21.12
2017-12-17T04:44:22.542Z,19.10
2017-12-17T04:46:50.798Z,24.83
2017-12-17T04:49:18.288Z,22.80
2017-12-17T04:51:45.792Z,20.30
2017-12-17T04:54:13.271Z,18.52
2017-12-17T04:56:40.768Z,28.40
2017-12-17T04:59:11.972Z,23.87
2017-12-17T05:01:39.490Z,22.83
2017-12-17T05:04:06.978Z,26.90
2017-12-17T05:06:34.501Z,27.60
2017-12-17T05:09:01.985Z,24.58
2017-12-17T05:11:29.471Z,23.25
2017-12-17T05:13:57.934Z,22.20
2017-12-17T05:16:25.431Z,23.60
2017-12-17T05:18:52.920Z,23.45
2017-12-17T05:21:20.438Z,21.80
2017-12-17T05:23:48.694Z,23.27
2017-12-17T05:26:16.182Z,24.90
2017-12-17T05:28:44.506Z,25.73
2017-12-17T05:31:11.986Z,28.55
2017-12-17T05:33:39.575Z,22.77
2017-12-17T05:36:07.074Z,20.10
2017-12-17T05:38:34.566Z,22.48
2017-12-17T05:41:02.064Z,22.95
2017-12-17T05:43:30.558Z,21.55
2017-12-17T05:45:58.047Z,22.35
2017-12-17T05:48:25.652Z,23.20
2017-12-17T05:50:53.326Z,20.37
2017-12-17T05:53:20.932Z,21.30
2017-12-17T05:55:48.416Z,18.48
2017-12-17T05:58:15.930Z,17.52
2017-12-17T06:00:43.471Z,16.30
2017-12-17T06:03:11.034Z,21.83
2017-12-17T06:05:38.550Z,16.35
2017-12-17T06:08:06.810Z,21.25
2017-12-17T06:10:34.282Z,19.40
2017-12-17T06:13:02.558Z,15.88
2017-12-17T06:15:30.101Z,18.55
2017-12-17T06:17:57.579Z,18.35
2017-12-17T06:20:25.854Z,18.25
2017-12-17T06:22:54.118Z,16.00
2017-12-17T06:25:22.374Z,21.17
2017-12-17T06:27:49.903Z,24.55
2017-12-17T06:30:17.379Z,24.00
2017-12-17T06:32:45.687Z,19.42
2017-12-17T06:35:13.962Z,25.90
2017-12-17T06:37:41.470Z,22.35
2017-12-17T06:40:08.962Z,24.95
2017-12-17T06:42:36.538Z,23.15
2017-12-17T06:45:04.202Z,23.90
2017-12-17T06:47:32.468Z,21.70
2017-12-17T06:50:00.186Z,30.75
2017-12-17T06:52:27.686Z,25.60
2017-12-17T06:54:55.348Z,21.33
2017-12-17T06:57:23.642Z,25.58
2017-12-17T06:59:51.978Z,22.73
2017-12-17T07:02:20.294Z,24.00
2017-12-17T07:04:47.826Z,27.50
2017-12-17T07:07:15.314Z,28.73
2017-12-17T07:09:43.587Z,22.48
2017-12-17T07:12:11.870Z,22.95
2017-12-17T07:14:40.146Z,21.08
2017-12-17T07:17:07.748Z,25.42
2017-12-17T07:19:35.266Z,22.30
2017-12-17T07:22:03.513Z,21.70
2017-12-17T07:24:31.047Z,19.58
2017-12-17T07:26:58.562Z,22.83
2017-12-17T07:29:26.839Z,19.80
2017-12-17T07:31:55.094Z,18.50
2017-12-17T07:34:22.712Z,22.70
2017-12-17T07:36:50.202Z,24.75
2017-12-17T07:39:17.690Z,26.90
2017-12-17T07:41:45.962Z,23.65
2017-12-17T07:44:14.319Z,23.92
2017-12-17T07:46:41.843Z,22.08
2017-12-17T07:49:09.346Z,26.62
2017-12-17T07:51:37.906Z,24.00
2017-12-17T07:54:06.706Z,35.08
2017-12-17T07:56:34.983Z,34.08
2017-12-17T07:59:02.950Z,41.00
2017-12-17T08:01:30.435Z,39.50
2017-12-17T08:03:58.965Z,40.55
2017-12-17T08:06:26.447Z,37.10
2017-12-17T08:08:53.945Z,43.08
2017-12-17T08:11:22.333Z,36.47
2017-12-17T08:13:51.463Z,42.40
2017-12-17T08:16:19.783Z,35.75
2017-12-17T08:18:48.089Z,37.10
2017-12-17T08:21:16.338Z,27.83
2017-12-17T08:23:45.501Z,30.27
2017-12-17T08:26:15.865Z,23.87
2017-12-17T08:28:45.524Z,24.02
2017-12-17T08:31:13.163Z,25.92
2017-12-17T08:33:41.542Z,22.37
2017-12-17T08:36:10.155Z,21.98
2017-12-17T08:38:38.105Z,25.23
2017-12-17T08:41:22.497Z,17.62
2017-12-17T08:43:52.191Z,17.67
2017-12-17T08:46:19.810Z,13.50
2017-12-17T08:48:48.307Z,12.93
2017-12-17T08:51:15.891Z,13.05
2017-12-17T08:53:43.564Z,14.50
2017-12-17T08:56:11.188Z,11.85
2017-12-17T08:59:01.927Z,16.08
2017-12-17T09:01:29.489Z,14.50
2017-12-17T09:03:57.723Z,13.73
2017-12-17T09:06:25.930Z,12.05
2017-12-17T09:08:53.462Z,12.30
2017-12-17T09:11:21.108Z,15.05
2017-12-17T09:13:49.321Z,12.90
2017-12-17T09:16:17.285Z,23.62
2017-12-17T09:18:46.568Z,17.08
2017-12-17T09:21:15.472Z,17.62
2017-12-17T09:23:43.835Z,17.80
2017-12-17T09:26:11.556Z,19.80
2017-12-17T09:28:39.977Z,28.35
2017-12-17T09:31:08.345Z,18.98
2017-12-17T09:33:36.021Z,22.02
2017-12-17T09:36:03.584Z,24.95
2017-12-17T09:38:31.146Z,24.08
2017-12-17T09:40:58.792Z,19.30
2017-12-17T09:43:26.373Z,15.50
2017-12-17T09:45:53.975Z,16.35
2017-12-17T09:48:22.463Z,15.60
2017-12-17T09:50:50.982Z,13.73
2017-12-17T09:53:18.694Z,12.52
2017-12-17T09:55:46.482Z,16.37
2017-12-17T09:58:14.818Z,15.75
2017-12-17T10:00:42.362Z,12.80
2017-12-17T10:03:09.939Z,19.02
2017-12-17T10:05:37.543Z,19.65
2017-12-17T10:08:05.100Z,21.87
2017-12-17T10:10:33.470Z,18.85
2017-12-17T10:13:03.526Z,20.77
2017-12-17T10:15:31.063Z,18.92
2017-12-17T10:17:58.647Z,15.27
2017-12-17T10:20:26.239Z,17.08
2017-12-17T10:22:53.731Z,18.70
2017-12-17T10:25:21.979Z,18.65
2017-12-17T10:27:50.276Z,21.17
2017-12-17T10:30:18.689Z,13.95
2017-12-17T10:32:46.291Z,15.75
2017-12-17T10:35:13.943Z,18.08
2017-12-17T10:37:41.423Z,15.18
2017-12-17T10:40:09.707Z,15.88
2017-12-17T10:42:38.103Z,18.80
2017-12-17T10:45:05.583Z,18.85
2017-12-17T10:47:33.066Z,16.37
2017-12-17T10:50:01.539Z,17.95
2017-12-17T10:52:29.034Z,19.58
2017-12-17T10:54:57.310Z,21.25
2017-12-17T10:57:24.847Z,17.48
2017-12-17T10:59:52.849Z,20.20
2017-12-17T11:02:21.230Z,14.48
2017-12-17T11:04:49.500Z,16.67
2017-12-17T11:07:17.836Z,13.77
2017-12-17T11:09:45.372Z,15.20
2017-12-17T11:12:12.854Z,13.52
2017-12-17T11:14:40.366Z,15.93
2017-12-17T11:17:08.017Z,17.02
2017-12-17T11:19:35.565Z,15.95
2017-12-17T11:22:03.826Z,13.57
2017-12-17T11:24:31.350Z,14.10
2017-12-17T11:26:58.862Z,14.43
2017-12-17T11:29:27.165Z,14.60
2017-12-17T11:31:54.810Z,12.07
2017-12-17T11:34:24.319Z,13.90
2017-12-17T11:36:52.558Z,17.53
2017-12-17T11:39:20.310Z,14.13
2017-12-17T11:41:47.915Z,15.20
2017-12-17T11:44:16.223Z,12.47
2017-12-17T11:46:43.718Z,13.80
2017-12-17T11:49:11.307Z,15.63
2017-12-17T11:51:39.618Z,14.85
2017-12-17T11:54:07.176Z,19.45
2017-12-17T11:56:34.706Z,15.63
2017-12-17T11:59:02.234Z,16.08
2017-12-17T12:01:29.746Z,14.60
2017-12-17T12:03:57.362Z,14.97
2017-12-17T12:06:24.910Z,11.67
2017-12-17T12:08:52.397Z,16.80
2017-12-17T12:11:20.682Z,15.07
2017-12-17T12:13:48.251Z,15.53
2017-12-17T12:16:16.625Z,14.20
2017-12-17T12:18:44.183Z,16.43
2017-12-17T12:21:11.751Z,11.67
2017-12-17T12:23:39.250Z,14.37
2017-12-17T12:26:07.682Z,17.03
2017-12-17T12:28:35.925Z,17.60
2017-12-17T12:31:03.414Z,15.67
2017-12-17T12:33:30.999Z,13.13
2017-12-17T12:35:58.525Z,17.50
2017-12-17T12:38:26.058Z,16.67
2017-12-17T12:40:53.683Z,17.47
2017-12-17T12:43:21.240Z,16.43
2017-12-17T12:45:48.748Z,17.60
2017-12-17T12:48:17.102Z,18.65
2017-12-17T12:50:44.606Z,13.48
2017-12-17T12:53:12.138Z,15.73
2017-12-17T12:55:40.448Z,19.17
2017-12-17T12:58:07.947Z,14.63
2017-12-17T13:00:35.446Z,14.87
2017-12-17T13:03:04.679Z,18.00
2017-12-17T13:05:32.162Z,17.48
2017-12-17T13:08:01.303Z,17.33
2017-12-17T13:10:28.872Z,15.60
2017-12-17T13:12:56.386Z,18.33
2017-12-17T13:15:25.446Z,16.58
2017-12-17T13:17:52.979Z,20.37
2017-12-17T13:20:21.615Z,18.15
2017-12-17T13:22:49.147Z,23.08
2017-12-17T13:25:16.634Z,17.10
2017-12-17T13:27:44.622Z,26.87
2017-12-17T13:30:12.106Z,21.52
2017-12-17T13:32:40.362Z,20.37
2017-12-17T13:35:07.973Z,24.67
2017-12-17T13:37:35.467Z,19.73
2017-12-17T13:40:02.953Z,23.80
2017-12-17T13:42:31.326Z,23.27
2017-12-17T13:44:59.680Z,22.52
2017-12-17T13:47:27.961Z,24.50
2017-12-17T13:49:55.539Z,23.23
2017-12-17T13:52:23.892Z,26.62
2017-12-17T13:54:51.422Z,26.17
2017-12-17T13:57:19.035Z,29.08
2017-12-17T13:59:47.353Z,26.85
2017-12-17T14:02:14.940Z,19.30
2017-12-17T14:04:42.485Z,21.08
2017-12-17T14:07:10.905Z,25.37
2017-12-17T14:09:38.413Z,24.87
2017-12-17T14:12:06.077Z,20.37
2017-12-17T14:14:33.598Z,29.73
2017-12-17T14:17:01.922Z,25.15
2017-12-17T14:19:29.498Z,28.50
2017-12-17T14:21:56.994Z,24.12
2017-12-17T14:24:25.265Z,23.12
2017-12-17T14:26:53.546Z,29.65
2017-12-17T14:29:21.818Z,30.15
2017-12-17T14:31:50.351Z,32.40
2017-12-17T14:34:17.988Z,26.92
2017-12-17T14:36:45.487Z,30.37
2017-12-17T14:39:13.964Z,27.27
2017-12-17T14:41:41.565Z,24.65
2017-12-17T14:44:09.179Z,32.30
2017-12-17T14:46:36.733Z,29.85
2017-12-17T14:49:04.247Z,32.65
2017-12-17T14:51:32.524Z,33.28
2017-12-17T14:54:25.622Z,24.95
2017-12-17T14:59:55.831Z,33.20
2017-12-17T15:02:28.708Z,33.47
2017-12-17T15:05:22.767Z,29.95
2017-12-17T15:13:47.989Z,31.33
2017-12-17T15:19:55.149Z,41.83
2017-12-17T15:22:26.518Z,32.90
2017-12-17T15:27:45.627Z,31.25
2017-12-17T15:30:34.198Z,38.25
2017-12-17T15:33:35.482Z,34.90
2017-12-17T15:36:06.953Z,42.78
2017-12-17T15:38:58.881Z,35.38
2017-12-17T15:44:12.678Z,34.80
2017-12-17T15:47:04.324Z,39.55
2017-12-17T15:55:18.528Z,38.67
2017-12-17T16:04:05.383Z,35.55
2017-12-17T16:09:36.318Z,35.35
2017-12-17T16:12:30.927Z,33.03
2017-12-17T16:18:07.311Z,32.65
2017-12-17T16:20:39.496Z,35.40
2017-12-17T16:23:25.993Z,32.95
2017-12-17T16:26:00.820Z,31.50
2017-12-17T16:28:29.392Z,35.45
2017-12-17T16:30:57.158Z,36.53
2017-12-17T16:33:24.699Z,33.38
2017-12-17T16:35:52.210Z,38.45
2017-12-17T16:38:19.770Z,33.30
2017-12-17T16:40:47.295Z,29.42
2017-12-17T16:43:15.612Z,38.30
2017-12-17T16:45:43.916Z,27.92
2017-12-17T16:48:12.159Z,35.42
2017-12-17T16:50:39.690Z,30.83
2017-12-17T16:53:07.943Z,27.90
2017-12-17T16:55:35.545Z,24.95
2017-12-17T16:58:03.158Z,24.12
2017-12-17T17:00:30.653Z,25.65
2017-12-17T17:02:59.066Z,25.35
2017-12-17T17:05:28.115Z,26.75
2017-12-17T17:07:55.766Z,22.27
2017-12-17T17:10:23.389Z,24.25
2017-12-17T17:12:50.971Z,23.08
2017-12-17T17:15:18.569Z,23.85
2017-12-17T17:17:46.163Z,22.67
2017-12-17T17:20:13.690Z,21.40
2017-12-17T17:22:41.934Z,25.45
2017-12-17T17:25:09.554Z,21.02
2017-12-17T17:27:37.840Z,19.67
2017-12-17T17:30:05.434Z,22.23
2017-12-17T17:32:32.944Z,17.65
2017-12-17T17:35:00.506Z,19.50
2017-12-17T17:37:28.069Z,19.50
2017-12-17T17:39:55.599Z,21.55
2017-12-17T17:42:23.172Z,18.70
2017-12-17T17:44:50.794Z,17.98
2017-12-17T17:47:19.124Z,16.50
2017-12-17T17:49:46.641Z,17.00
2017-12-17T17:52:14.244Z,22.75
2017-12-17T17:54:41.810Z,26.00
2017-12-17T17:57:09.403Z,23.17
2017-12-17T17:59:36.947Z,22.40
2017-12-17T18:02:05.223Z,27.48
2017-12-17T18:04:32.724Z,30.08
2017-12-17T18:07:00.974Z,25.55
2017-12-17T18:09:28.479Z,28.33
2017-12-17T18:11:56.034Z,30.12
2017-12-17T18:14:23.523Z,29.00
2017-12-17T18:16:51.094Z,29.67
2017-12-17T18:19:18.679Z,33.78
2017-12-17T18:21:47.075Z,34.28
2017-12-17T18:24:15.396Z,32.13
2017-12-17T18:26:42.961Z,34.33
2017-12-17T18:29:10.510Z,31.15
2017-12-17T18:31:38.007Z,32.55
2017-12-17T18:34:05.734Z,32.28
2017-12-17T18:36:33.477Z,29.40
2017-12-17T18:39:01.382Z,32.90
2017-12-17T18:41:29.721Z,31.62
2017-12-17T18:43:57.387Z,29.33
2017-12-17T18:46:24.905Z,34.72
2017-12-17T18:48:52.838Z,34.28
2017-12-17T18:51:22.421Z,35.65
2017-12-17T18:53:49.986Z,43.22
2017-12-17T18:56:18.744Z,32.17
2017-12-17T18:59:09.995Z,36.10
2017-12-17T19:01:39.188Z,36.72
2017-12-17T19:04:06.814Z,34.63
2017-12-17T19:06:36.458Z,35.88
2017-12-17T19:09:07.328Z,42.85
2017-12-17T19:11:34.843Z,40.65
2017-12-17T19:14:04.500Z,49.00
2017-12-17T19:16:32.185Z,49.30
2017-12-17T19:18:59.712Z,44.05
2017-12-17T19:21:28.204Z,49.20
2017-12-17T19:23:59.801Z,44.70
2017-12-17T19:26:27.488Z,43.87
2017-12-17T19:28:59.621Z,47.97
2017-12-17T19:31:28.110Z,40.25
2017-12-17T19:33:58.892Z,50.95
2017-12-17T19:36:26.415Z,37.55
2017-12-17T19:38:54.722Z,45.10
2017-12-17T19:41:22.426Z,41.60
2017-12-17T19:43:51.784Z,42.22
2017-12-17T19:46:20.942Z,41.45
2017-12-17T19:48:50.151Z,39.55
2017-12-17T19:51:18.521Z,37.65
2017-12-17T19:53:46.919Z,38.00
2017-12-17T19:56:15.264Z,40.00
2017-12-17T19:58:43.599Z,40.00
2017-12-17T20:01:11.726Z,30.27
2017-12-17T20:03:40.270Z,35.65
2017-12-17T20:06:13.984Z,35.63
2017-12-17T20:08:49.810Z,29.67
2017-12-17T20:11:21.167Z,32.17
2017-12-17T20:13:50.705Z,32.95
2017-12-17T20:16:18.463Z,30.92
2017-12-17T20:18:46.453Z,28.67
2017-12-17T20:21:15.868Z,30.10
2017-12-17T20:23:47.198Z,27.02
2017-12-17T20:26:17.279Z,20.35
2017-12-17T20:28:45.025Z,29.52
2017-12-17T20:31:12.879Z,26.08
2017-12-17T20:33:40.777Z,28.85
2017-12-17T20:36:09.925Z,24.58
2017-12-17T20:38:38.237Z,30.65
2017-12-17T20:41:05.851Z,24.65
2017-12-17T20:43:34.337Z,27.35
2017-12-17T20:46:09.112Z,27.55
2017-12-17T20:48:36.926Z,16.77
2017-12-17T20:51:05.231Z,27.00
2017-12-17T20:53:35.014Z,24.65
2017-12-17T20:56:07.054Z,19.10
2017-12-17T20:58:35.028Z,28.92
2017-12-17T21:01:05.072Z,23.73
2017-12-17T21:03:32.659Z,31.90
2017-12-17T21:06:00.687Z,25.45
2017-12-17T21:08:28.541Z,28.33
2017-12-17T21:10:57.063Z,27.90
2017-12-17T21:13:25.375Z,30.10
2017-12-17T21:15:52.914Z,28.10
2017-12-17T21:18:24.439Z,26.08
2017-12-17T21:20:53.433Z,25.77
2017-12-17T21:23:22.435Z,27.73
2017-12-17T21:25:50.893Z,25.98
2017-12-17T21:28:23.215Z,29.70
2017-12-17T21:30:51.026Z,27.73
2017-12-17T21:33:20.006Z,22.58
2017-12-17T21:35:51.987Z,26.17
2017-12-17T21:38:19.976Z,26.87
2017-12-17T21:40:47.604Z,31.95
2017-12-17T21:43:17.089Z,24.58
2017-12-17T21:45:46.772Z,25.50
2017-12-17T21:48:14.727Z,28.62
2017-12-17T21:50:42.278Z,26.48
2017-12-17T21:53:12.702Z,26.80
2017-12-17T21:55:43.783Z,24.83
2017-12-17T21:58:12.126Z,23.80
2017-12-17T22:00:41.320Z,28.60
2017-12-17T22:03:09.769Z,24.90
2017-12-17T22:05:40.702Z,27.52
2017-12-17T22:08:12.050Z,20.30
2017-12-17T22:10:39.578Z,23.70
2017-12-17T22:13:08.215Z,32.42
2017-12-17T22:15:36.438Z,26.52
2017-12-17T22:18:03.946Z,30.02
2017-12-17T22:20:31.710Z,31.85
2017-12-17T22:23:00.088Z,32.33
2017-12-17T22:25:28.538Z,35.38
2017-12-17T22:27:56.669Z,19.98
2017-12-17T22:30:25.232Z,30.77
2017-12-17T22:32:53.356Z,29.35
2017-12-17T22:35:21.754Z,34.50
2017-12-17T22:37:52.951Z,24.77
2017-12-17T22:40:32.910Z,29.42
2017-12-17T22:43:00.750Z,33.22
2017-12-17T22:45:28.926Z,40.45
2017-12-17T22:48:01.740Z,26.85
2017-12-17T22:50:41.803Z,27.48
2017-12-17T22:53:15.233Z,29.80
2017-12-17T22:55:43.431Z,36.13
2017-12-17T22:58:26.084Z,35.45
2017-12-17T23:00:54.634Z,33.60
2017-12-17T23:03:23.084Z,30.55
2017-12-17T23:05:50.797Z,37.17
2017-12-17T23:08:19.279Z,34.95
2017-12-17T23:10:47.557Z,40.05
2017-12-17T23:13:16.730Z,34.53
2017-12-17T23:15:46.433Z,39.58
2017-12-17T23:18:14.940Z,28.80
2017-12-17T23:20:42.435Z,24.98
2017-12-17T23:23:11.142Z,38.53
2017-12-17T23:25:38.643Z,32.65
2017-12-17T23:28:06.138Z,36.70
2017-12-17T23:30:42.914Z,34.45
2017-12-17T23:33:10.411Z,35.45
2017-12-17T23:35:38.663Z,33.03
2017-12-17T23:38:06.350Z,28.35
2017-12-17T23:40:33.841Z,36.05
2017-12-17T23:43:01.331Z,29.73
2017-12-17T23:45:29.148Z,30.52
2017-12-17T23:47:58.796Z,27.20
2017-12-17T23:50:26.846Z,28.38
2017-12-17T23:52:58.399Z,21.70
2017-12-17T23:55:26.155Z,21.65
2017-12-17T23:57:53.887Z,25.05
